sensor_id;sensor_type;location;lat;lon;timestamp;pressure;altitude;pressure_sealevel;temperature;humidity
69574;BME280;62840;52.366;5.980;2022-08-19T00:00:26;101312.09;;;18.55;70.33
69574;BME280;62840;52.366;5.980;2022-08-19T00:02:52;101316.81;;;18.53;70.40
69574;BME280;62840;52.366;5.980;2022-08-19T00:05:18;101313.44;;;18.51;70.58
69574;BME280;62840;52.366;5.980;2022-08-19T00:07:45;101312.75;;;18.49;70.72
69574;BME280;62840;52.366;5.980;2022-08-19T00:10:13;101311.22;;;18.47;70.56
69574;BME280;62840;52.366;5.980;2022-08-19T00:12:40;101317.81;;;18.44;70.75
69574;BME280;62840;52.366;5.980;2022-08-19T00:15:10;101312.75;;;18.41;70.33
69574;BME280;62840;52.366;5.980;2022-08-19T00:17:42;101312.22;;;18.38;70.32
69574;BME280;62840;52.366;5.980;2022-08-19T00:20:10;101312.75;;;18.33;70.58
69574;BME280;62840;52.366;5.980;2022-08-19T00:22:39;101313.91;;;18.30;70.87
69574;BME280;62840;52.366;5.980;2022-08-19T00:25:06;101312.41;;;18.28;70.59
69574;BME280;62840;52.366;5.980;2022-08-19T00:27:32;101319.13;;;18.24;70.82
69574;BME280;62840;52.366;5.980;2022-08-19T00:29:58;101310.00;;;18.17;70.78
69574;BME280;62840;52.366;5.980;2022-08-19T00:32:24;101312.34;;;18.11;70.86
69574;BME280;62840;52.366;5.980;2022-08-19T00:34:53;101305.59;;;18.07;70.67
69574;BME280;62840;52.366;5.980;2022-08-19T00:37:19;101313.19;;;18.04;70.67
69574;BME280;62840;52.366;5.980;2022-08-19T00:39:45;101302.53;;;18.02;71.04
69574;BME280;62840;52.366;5.980;2022-08-19T00:42:11;101300.31;;;17.98;70.81
69574;BME280;62840;52.366;5.980;2022-08-19T00:44:36;101297.13;;;17.94;70.86
69574;BME280;62840;52.366;5.980;2022-08-19T00:47:02;101296.44;;;17.92;70.58
69574;BME280;62840;52.366;5.980;2022-08-19T00:49:31;101290.53;;;17.88;70.95
69574;BME280;62840;52.366;5.980;2022-08-19T00:52:09;101284.78;;;17.83;71.18
69574;BME280;62840;52.366;5.980;2022-08-19T00:54:38;101286.94;;;17.80;70.72
69574;BME280;62840;52.366;5.980;2022-08-19T00:57:08;101292.53;;;17.78;70.90
69574;BME280;62840;52.366;5.980;2022-08-19T00:59:38;101290.09;;;17.75;70.69
69574;BME280;62840;52.366;5.980;2022-08-19T01:02:06;101303.78;;;17.73;70.94
69574;BME280;62840;52.366;5.980;2022-08-19T01:04:33;101304.91;;;17.71;70.72
69574;BME280;62840;52.366;5.980;2022-08-19T01:06:59;101306.09;;;17.68;70.58
69574;BME280;62840;52.366;5.980;2022-08-19T01:09:30;101311.81;;;17.65;71.15
69574;BME280;62840;52.366;5.980;2022-08-19T01:11:57;101312.16;;;17.62;71.01
69574;BME280;62840;52.366;5.980;2022-08-19T01:14:23;101302.69;;;17.58;71.21
69574;BME280;62840;52.366;5.980;2022-08-19T01:16:51;101306.56;;;17.56;70.68
69574;BME280;62840;52.366;5.980;2022-08-19T01:19:26;101306.38;;;17.49;70.90
69574;BME280;62840;52.366;5.980;2022-08-19T01:21:59;101308.69;;;17.44;71.11
69574;BME280;62840;52.366;5.980;2022-08-19T01:24:36;101305.63;;;17.39;71.22
69574;BME280;62840;52.366;5.980;2022-08-19T01:27:03;101306.78;;;17.36;71.23
69574;BME280;62840;52.366;5.980;2022-08-19T01:29:31;101306.94;;;17.35;71.29
69574;BME280;62840;52.366;5.980;2022-08-19T01:31:57;101311.66;;;17.33;71.09
69574;BME280;62840;52.366;5.980;2022-08-19T01:34:23;101309.97;;;17.31;71.23
69574;BME280;62840;52.366;5.980;2022-08-19T01:36:49;101314.81;;;17.28;71.26
69574;BME280;62840;52.366;5.980;2022-08-19T01:39:17;101303.53;;;17.24;70.91
69574;BME280;62840;52.366;5.980;2022-08-19T01:41:49;101312.94;;;17.20;71.18
69574;BME280;62840;52.366;5.980;2022-08-19T01:44:16;101310.88;;;17.14;71.03
69574;BME280;62840;52.366;5.980;2022-08-19T01:46:43;101312.19;;;17.10;71.09
69574;BME280;62840;52.366;5.980;2022-08-19T01:49:09;101317.91;;;17.07;71.07
69574;BME280;62840;52.366;5.980;2022-08-19T01:51:36;101303.72;;;17.05;70.67
69574;BME280;62840;52.366;5.980;2022-08-19T01:54:02;101311.13;;;17.03;70.81
69574;BME280;62840;52.366;5.980;2022-08-19T01:56:28;101311.59;;;16.98;70.95
69574;BME280;62840;52.366;5.980;2022-08-19T01:59:00;101309.38;;;16.94;70.78
69574;BME280;62840;52.366;5.980;2022-08-19T02:01:30;101308.88;;;16.90;71.04
69574;BME280;62840;52.366;5.980;2022-08-19T02:03:55;101312.69;;;16.87;70.94
69574;BME280;62840;52.366;5.980;2022-08-19T02:06:21;101322.78;;;16.85;71.10
69574;BME280;62840;52.366;5.980;2022-08-19T02:08:47;101316.72;;;16.83;70.95
69574;BME280;62840;52.366;5.980;2022-08-19T02:11:20;101313.34;;;16.81;71.27
69574;BME280;62840;52.366;5.980;2022-08-19T02:13:48;101315.31;;;16.79;70.77
69574;BME280;62840;52.366;5.980;2022-08-19T02:16:17;101315.59;;;16.76;71.37
69574;BME280;62840;52.366;5.980;2022-08-19T02:18:43;101314.25;;;16.72;71.00
69574;BME280;62840;52.366;5.980;2022-08-19T02:21:09;101303.94;;;16.67;70.95
69574;BME280;62840;52.366;5.980;2022-08-19T02:23:35;101295.31;;;16.64;71.09
69574;BME280;62840;52.366;5.980;2022-08-19T02:26:01;101296.28;;;16.63;71.41
69574;BME280;62840;52.366;5.980;2022-08-19T02:28:27;101308.09;;;16.62;71.16
69574;BME280;62840;52.366;5.980;2022-08-19T02:30:52;101306.41;;;16.61;70.94
69574;BME280;62840;52.366;5.980;2022-08-19T02:33:21;101315.47;;;16.60;71.21
69574;BME280;62840;52.366;5.980;2022-08-19T02:35:47;101312.09;;;16.58;71.43
69574;BME280;62840;52.366;5.980;2022-08-19T02:38:13;101303.31;;;16.56;71.19
69574;BME280;62840;52.366;5.980;2022-08-19T02:40:39;101310.00;;;16.52;71.14
69574;BME280;62840;52.366;5.980;2022-08-19T02:43:06;101305.78;;;16.49;70.93
69574;BME280;62840;52.366;5.980;2022-08-19T02:45:34;101316.72;;;16.47;71.31
69574;BME280;62840;52.366;5.980;2022-08-19T02:48:00;101320.72;;;16.43;71.14
69574;BME280;62840;52.366;5.980;2022-08-19T02:50:28;101311.25;;;16.39;70.97
69574;BME280;62840;52.366;5.980;2022-08-19T02:52:54;101310.69;;;16.36;71.14
69574;BME280;62840;52.366;5.980;2022-08-19T02:55:20;101306.47;;;16.33;71.20
69574;BME280;62840;52.366;5.980;2022-08-19T02:57:46;101306.94;;;16.28;71.17
69574;BME280;62840;52.366;5.980;2022-08-19T03:00:12;101307.09;;;16.27;71.13
69574;BME280;62840;52.366;5.980;2022-08-19T03:02:39;101305.72;;;16.23;71.29
69574;BME280;62840;52.366;5.980;2022-08-19T03:05:08;101306.00;;;16.20;71.31
69574;BME280;62840;52.366;5.980;2022-08-19T03:07:38;101313.38;;;16.18;71.28
69574;BME280;62840;52.366;5.980;2022-08-19T03:10:05;101306.31;;;16.17;71.10
69574;BME280;62840;52.366;5.980;2022-08-19T03:12:35;101309.00;;;16.17;71.03
69574;BME280;62840;52.366;5.980;2022-08-19T03:15:03;101307.31;;;16.16;71.14
69574;BME280;62840;52.366;5.980;2022-08-19T03:17:30;101313.53;;;16.16;71.36
69574;BME280;62840;52.366;5.980;2022-08-19T03:19:56;101312.84;;;16.14;71.44
69574;BME280;62840;52.366;5.980;2022-08-19T03:22:22;101308.44;;;16.13;71.35
69574;BME280;62840;52.366;5.980;2022-08-19T03:24:50;101316.69;;;16.12;71.05
69574;BME280;62840;52.366;5.980;2022-08-19T03:27:16;101310.75;;;16.08;71.18
69574;BME280;62840;52.366;5.980;2022-08-19T03:29:42;101318.97;;;16.06;71.25
69574;BME280;62840;52.366;5.980;2022-08-19T03:32:08;101318.44;;;16.03;71.16
69574;BME280;62840;52.366;5.980;2022-08-19T03:34:36;101319.59;;;16.00;71.01
69574;BME280;62840;52.366;5.980;2022-08-19T03:37:06;101319.88;;;15.97;71.50
69574;BME280;62840;52.366;5.980;2022-08-19T03:39:35;101310.28;;;15.95;71.36
69574;BME280;62840;52.366;5.980;2022-08-19T03:42:05;101314.94;;;15.93;71.39
69574;BME280;62840;52.366;5.980;2022-08-19T03:44:31;101314.41;;;15.89;71.58
69574;BME280;62840;52.366;5.980;2022-08-19T03:46:58;101319.09;;;15.87;71.34
69574;BME280;62840;52.366;5.980;2022-08-19T03:49:27;101310.34;;;15.85;71.43
69574;BME280;62840;52.366;5.980;2022-08-19T03:51:55;101312.31;;;15.83;71.57
69574;BME280;62840;52.366;5.980;2022-08-19T03:54:24;101314.31;;;15.81;71.46
69574;BME280;62840;52.366;5.980;2022-08-19T03:56:52;101314.59;;;15.78;71.24
69574;BME280;62840;52.366;5.980;2022-08-19T03:59:25;101311.19;;;15.76;71.38
69574;BME280;62840;52.366;5.980;2022-08-19T04:01:53;101310.50;;;15.74;71.63
69574;BME280;62840;52.366;5.980;2022-08-19T04:04:20;101308.13;;;15.71;71.63
69574;BME280;62840;52.366;5.980;2022-08-19T04:06:46;101310.81;;;15.71;71.79
69574;BME280;62840;52.366;5.980;2022-08-19T04:09:11;101299.03;;;15.72;71.65
69574;BME280;62840;52.366;5.980;2022-08-19T04:11:41;101298.34;;;15.70;71.30
69574;BME280;62840;52.366;5.980;2022-08-19T04:14:09;101301.03;;;15.70;71.59
69574;BME280;62840;52.366;5.980;2022-08-19T04:16:39;101302.88;;;15.69;71.45
69574;BME280;62840;52.366;5.980;2022-08-19T04:19:05;101290.59;;;15.67;71.39
69574;BME280;62840;52.366;5.980;2022-08-19T04:21:32;101298.78;;;15.65;71.62
69574;BME280;62840;52.366;5.980;2022-08-19T04:23:58;101296.25;;;15.63;71.62
69574;BME280;62840;52.366;5.980;2022-08-19T04:26:26;101293.56;;;15.63;71.42
69574;BME280;62840;52.366;5.980;2022-08-19T04:28:54;101285.78;;;15.60;71.41
69574;BME280;62840;52.366;5.980;2022-08-19T04:31:23;101284.97;;;15.60;71.48
69574;BME280;62840;52.366;5.980;2022-08-19T04:33:53;101281.84;;;15.55;71.39
69574;BME280;62840;52.366;5.980;2022-08-19T04:36:22;101296.44;;;15.52;71.60
69574;BME280;62840;52.366;5.980;2022-08-19T04:38:54;101297.44;;;15.51;71.52
69574;BME280;62840;52.366;5.980;2022-08-19T04:41:22;101299.13;;;15.52;71.49
69574;BME280;62840;52.366;5.980;2022-08-19T04:43:48;101292.06;;;15.51;71.58
69574;BME280;62840;52.366;5.980;2022-08-19T04:46:14;101293.03;;;15.50;71.35
69574;BME280;62840;52.366;5.980;2022-08-19T04:48:40;101281.31;;;15.51;71.55
69574;BME280;62840;52.366;5.980;2022-08-19T04:51:10;101282.47;;;15.49;71.39
69574;BME280;62840;52.366;5.980;2022-08-19T04:53:39;101284.59;;;15.45;71.57
69574;BME280;62840;52.366;5.980;2022-08-19T04:56:08;101285.59;;;15.44;71.52
69574;BME280;62840;52.366;5.980;2022-08-19T04:58:37;101284.91;;;15.42;71.78
69574;BME280;62840;52.366;5.980;2022-08-19T05:01:04;101289.56;;;15.40;71.66
69574;BME280;62840;52.366;5.980;2022-08-19T05:03:30;101288.56;;;15.41;71.82
69574;BME280;62840;52.366;5.980;2022-08-19T05:05:56;101295.78;;;15.40;71.61
69574;BME280;62840;52.366;5.980;2022-08-19T05:08:24;101293.22;;;15.39;71.60
69574;BME280;62840;52.366;5.980;2022-08-19T05:10:51;101295.91;;;15.39;71.88
69574;BME280;62840;52.366;5.980;2022-08-19T05:13:18;101295.22;;;15.37;71.80
69574;BME280;62840;52.366;5.980;2022-08-19T05:15:53;101298.91;;;15.36;71.79
69574;BME280;62840;52.366;5.980;2022-08-19T05:18:20;101308.66;;;15.37;72.00
69574;BME280;62840;52.366;5.980;2022-08-19T05:20:46;101309.66;;;15.36;71.97
69574;BME280;62840;52.366;5.980;2022-08-19T05:23:12;101308.81;;;15.35;71.88
69574;BME280;62840;52.366;5.980;2022-08-19T05:25:41;101293.53;;;15.36;72.03
69574;BME280;62840;52.366;5.980;2022-08-19T05:28:07;101290.00;;;15.35;71.84
69574;BME280;62840;52.366;5.980;2022-08-19T05:30:33;101295.22;;;15.37;71.91
69574;BME280;62840;52.366;5.980;2022-08-19T05:32:59;101286.19;;;15.38;72.15
69574;BME280;62840;52.366;5.980;2022-08-19T05:35:25;101292.25;;;15.40;71.87
69574;BME280;62840;52.366;5.980;2022-08-19T05:37:50;101286.88;;;15.40;72.14
69574;BME280;62840;52.366;5.980;2022-08-19T05:40:16;101288.56;;;15.41;71.84
69574;BME280;62840;52.366;5.980;2022-08-19T05:42:45;101292.97;;;15.42;72.13
69574;BME280;62840;52.366;5.980;2022-08-19T05:45:10;101288.28;;;15.44;71.84
69574;BME280;62840;52.366;5.980;2022-08-19T05:47:36;101281.59;;;15.48;72.08
69574;BME280;62840;52.366;5.980;2022-08-19T05:50:02;101288.53;;;15.51;72.16
69574;BME280;62840;52.366;5.980;2022-08-19T05:52:29;101290.09;;;15.53;72.11
69574;BME280;62840;52.366;5.980;2022-08-19T05:54:55;101288.09;;;15.55;72.19
69574;BME280;62840;52.366;5.980;2022-08-19T05:57:20;101287.78;;;15.58;71.91
69574;BME280;62840;52.366;5.980;2022-08-19T05:59:49;101302.63;;;15.62;72.12
69574;BME280;62840;52.366;5.980;2022-08-19T06:02:15;101291.72;;;15.64;71.93
69574;BME280;62840;52.366;5.980;2022-08-19T06:04:41;101290.59;;;15.67;71.86
69574;BME280;62840;52.366;5.980;2022-08-19T06:07:07;101286.59;;;15.71;71.74
69574;BME280;62840;52.366;5.980;2022-08-19T06:09:33;101287.97;;;15.75;71.79
69574;BME280;62840;52.366;5.980;2022-08-19T06:11:59;101284.00;;;15.79;72.08
69574;BME280;62840;52.366;5.980;2022-08-19T06:14:27;101288.81;;;15.85;72.18
69574;BME280;62840;52.366;5.980;2022-08-19T06:16:58;101289.34;;;15.89;71.91
69574;BME280;62840;52.366;5.980;2022-08-19T06:19:24;101291.44;;;15.95;72.29
69574;BME280;62840;52.366;5.980;2022-08-19T06:21:51;101290.97;;;15.99;71.96
69574;BME280;62840;52.366;5.980;2022-08-19T06:24:19;101290.69;;;16.02;72.41
69574;BME280;62840;52.366;5.980;2022-08-19T06:26:48;101292.06;;;16.06;72.28
69574;BME280;62840;52.366;5.980;2022-08-19T06:29:16;101287.09;;;16.12;72.44
69574;BME280;62840;52.366;5.980;2022-08-19T06:31:44;101287.47;;;16.17;72.23
69574;BME280;62840;52.366;5.980;2022-08-19T06:34:14;101285.16;;;16.22;72.40
69574;BME280;62840;52.366;5.980;2022-08-19T06:36:43;101291.63;;;16.29;72.51
69574;BME280;62840;52.366;5.980;2022-08-19T06:39:12;101296.41;;;16.35;72.62
69574;BME280;62840;52.366;5.980;2022-08-19T06:41:42;101293.78;;;16.43;72.65
69574;BME280;62840;52.366;5.980;2022-08-19T06:44:10;101301.91;;;16.52;72.35
69574;BME280;62840;52.366;5.980;2022-08-19T06:46:38;101299.31;;;16.60;72.36
69574;BME280;62840;52.366;5.980;2022-08-19T06:49:05;101296.53;;;16.69;72.83
69574;BME280;62840;52.366;5.980;2022-08-19T06:51:34;101292.06;;;16.78;72.88
69574;BME280;62840;52.366;5.980;2022-08-19T06:54:00;101293.84;;;16.87;72.45
69574;BME280;62840;52.366;5.980;2022-08-19T06:56:28;101293.75;;;16.97;72.53
69574;BME280;62840;52.366;5.980;2022-08-19T06:58:56;101294.66;;;17.06;72.61
69574;BME280;62840;52.366;5.980;2022-08-19T07:01:21;101295.38;;;17.16;72.87
69574;BME280;62840;52.366;5.980;2022-08-19T07:03:47;101281.97;;;17.24;73.11
69574;BME280;62840;52.366;5.980;2022-08-19T07:06:15;101289.78;;;17.36;73.21
69574;BME280;62840;52.366;5.980;2022-08-19T07:08:45;101294.88;;;17.47;73.16
69574;BME280;62840;52.366;5.980;2022-08-19T07:11:15;101301.69;;;17.59;73.24
69574;BME280;62840;52.366;5.980;2022-08-19T07:13:43;101296.53;;;17.74;73.29
69574;BME280;62840;52.366;5.980;2022-08-19T07:16:13;101300.47;;;17.88;74.04
69574;BME280;62840;52.366;5.980;2022-08-19T07:18:41;101292.75;;;18.01;73.55
69574;BME280;62840;52.366;5.980;2022-08-19T07:21:09;101310.00;;;18.17;73.60
69574;BME280;62840;52.366;5.980;2022-08-19T07:23:39;101299.56;;;18.30;73.63
69574;BME280;62840;52.366;5.980;2022-08-19T07:26:10;101308.19;;;18.42;73.67
69574;BME280;62840;52.366;5.980;2022-08-19T07:28:38;101308.03;;;18.51;73.40
69574;BME280;62840;52.366;5.980;2022-08-19T07:31:05;101311.22;;;18.63;73.58
69574;BME280;62840;52.366;5.980;2022-08-19T07:33:31;101309.41;;;18.72;73.38
69574;BME280;62840;52.366;5.980;2022-08-19T07:35:57;101312.13;;;18.80;73.54
69574;BME280;62840;52.366;5.980;2022-08-19T07:38:23;101301.97;;;18.90;73.37
69574;BME280;62840;52.366;5.980;2022-08-19T07:40:49;101308.06;;;19.01;73.35
69574;BME280;62840;52.366;5.980;2022-08-19T07:43:17;101318.66;;;19.10;73.13
69574;BME280;62840;52.366;5.980;2022-08-19T07:45:43;101316.81;;;19.19;72.82
69574;BME280;62840;52.366;5.980;2022-08-19T07:48:09;101315.75;;;19.28;72.82
69574;BME280;62840;52.366;5.980;2022-08-19T07:50:35;101316.44;;;19.38;72.57
69574;BME280;62840;52.366;5.980;2022-08-19T07:53:00;101316.22;;;19.48;72.36
69574;BME280;62840;52.366;5.980;2022-08-19T07:55:26;101312.66;;;19.56;72.55
69574;BME280;62840;52.366;5.980;2022-08-19T07:57:52;101314.50;;;19.64;72.65
69574;BME280;62840;52.366;5.980;2022-08-19T08:00:20;101305.34;;;19.73;72.51
69574;BME280;62840;52.366;5.980;2022-08-19T08:02:46;101309.03;;;19.80;72.10
69574;BME280;62840;52.366;5.980;2022-08-19T08:05:12;101321.69;;;19.88;71.71
69574;BME280;62840;52.366;5.980;2022-08-19T08:07:38;101321.84;;;19.94;72.14
69574;BME280;62840;52.366;5.980;2022-08-19T08:10:05;101325.69;;;20.00;71.63
69574;BME280;62840;52.366;5.980;2022-08-19T08:12:35;101331.22;;;20.07;71.72
69574;BME280;62840;52.366;5.980;2022-08-19T08:15:07;101338.00;;;20.11;71.61
69574;BME280;62840;52.366;5.980;2022-08-19T08:17:39;101339.78;;;20.18;71.41
69574;BME280;62840;52.366;5.980;2022-08-19T08:20:06;101340.78;;;20.26;71.53
69574;BME280;62840;52.366;5.980;2022-08-19T08:22:32;101343.44;;;20.34;71.20
69574;BME280;62840;52.366;5.980;2022-08-19T08:25:02;101339.00;;;20.41;70.85
69574;BME280;62840;52.366;5.980;2022-08-19T08:27:29;101338.28;;;20.47;70.82
69574;BME280;62840;52.366;5.980;2022-08-19T08:29:55;101350.09;;;20.54;70.29
69574;BME280;62840;52.366;5.980;2022-08-19T08:32:20;101342.28;;;20.59;70.06
69574;BME280;62840;52.366;5.980;2022-08-19T08:34:49;101344.91;;;20.68;70.37
69574;BME280;62840;52.366;5.980;2022-08-19T08:37:15;101351.50;;;20.73;69.75
69574;BME280;62840;52.366;5.980;2022-08-19T08:39:40;101345.16;;;20.81;69.89
69574;BME280;62840;52.366;5.980;2022-08-19T08:42:10;101348.81;;;20.88;70.04
69574;BME280;62840;52.366;5.980;2022-08-19T08:44:55;101348.75;;;20.96;69.62
69574;BME280;62840;52.366;5.980;2022-08-19T08:47:25;101355.50;;;21.00;69.18
69574;BME280;62840;52.366;5.980;2022-08-19T08:50:03;101354.78;;;21.07;69.20
69574;BME280;62840;52.366;5.980;2022-08-19T08:52:34;101350.66;;;21.11;69.08
69574;BME280;62840;52.366;5.980;2022-08-19T08:55:08;101348.25;;;21.16;68.85
69574;BME280;62840;52.366;5.980;2022-08-19T08:57:49;101352.13;;;21.21;68.60
69574;BME280;62840;52.366;5.980;2022-08-19T09:00:21;101350.72;;;21.26;68.31
69574;BME280;62840;52.366;5.980;2022-08-19T09:02:51;101348.13;;;21.32;67.87
69574;BME280;62840;52.366;5.980;2022-08-19T09:05:20;101354.00;;;21.36;67.54
69574;BME280;62840;52.366;5.980;2022-08-19T09:07:53;101350.75;;;21.40;67.69
69574;BME280;62840;52.366;5.980;2022-08-19T09:10:29;101353.75;;;21.45;67.14
69574;BME280;62840;52.366;5.980;2022-08-19T09:13:09;101351.31;;;21.51;66.83
69574;BME280;62840;52.366;5.980;2022-08-19T09:15:46;101357.00;;;21.56;67.17
69574;BME280;62840;52.366;5.980;2022-08-19T09:18:17;101351.88;;;21.61;66.72
69574;BME280;62840;52.366;5.980;2022-08-19T09:20:46;101348.59;;;21.65;66.75
69574;BME280;62840;52.366;5.980;2022-08-19T09:23:12;101350.75;;;21.70;66.34
69574;BME280;62840;52.366;5.980;2022-08-19T09:25:39;101351.84;;;21.76;66.41
69574;BME280;62840;52.366;5.980;2022-08-19T09:28:04;101347.56;;;21.81;65.30
69574;BME280;62840;52.366;5.980;2022-08-19T09:30:33;101355.97;;;21.86;64.81
69574;BME280;62840;52.366;5.980;2022-08-19T09:33:03;101342.66;;;21.92;64.64
69574;BME280;62840;52.366;5.980;2022-08-19T09:35:30;101345.66;;;21.97;65.10
69574;BME280;62840;52.366;5.980;2022-08-19T09:37:59;101350.81;;;22.06;65.18
69574;BME280;62840;52.366;5.980;2022-08-19T09:40:26;101351.28;;;22.10;64.47
69574;BME280;62840;52.366;5.980;2022-08-19T09:42:53;101347.78;;;22.16;64.83
69574;BME280;62840;52.366;5.980;2022-08-19T09:45:20;101349.09;;;22.20;64.39
69574;BME280;62840;52.366;5.980;2022-08-19T09:47:47;101351.25;;;22.25;64.15
69574;BME280;62840;52.366;5.980;2022-08-19T09:50:13;101358.81;;;22.30;64.11
69574;BME280;62840;52.366;5.980;2022-08-19T09:52:40;101360.13;;;22.34;63.88
69574;BME280;62840;52.366;5.980;2022-08-19T09:55:10;101353.47;;;22.36;63.39
69574;BME280;62840;52.366;5.980;2022-08-19T09:57:37;101357.66;;;22.39;63.11
69574;BME280;62840;52.366;5.980;2022-08-19T10:00:05;101354.94;;;22.39;62.92
69574;BME280;62840;52.366;5.980;2022-08-19T10:02:33;101365.44;;;22.42;62.47
69574;BME280;62840;52.366;5.980;2022-08-19T10:05:00;101359.63;;;22.45;62.48
69574;BME280;62840;52.366;5.980;2022-08-19T10:07:26;101358.84;;;22.51;62.58
69574;BME280;62840;52.366;5.980;2022-08-19T10:09:51;101363.91;;;22.54;62.24
69574;BME280;62840;52.366;5.980;2022-08-19T10:12:20;101359.28;;;22.55;62.37
69574;BME280;62840;52.366;5.980;2022-08-19T10:14:45;101359.94;;;22.57;62.21
69574;BME280;62840;52.366;5.980;2022-08-19T10:17:11;101354.97;;;22.60;62.04
69574;BME280;62840;52.366;5.980;2022-08-19T10:19:37;101364.44;;;22.64;62.28
69574;BME280;62840;52.366;5.980;2022-08-19T10:22:03;101371.16;;;22.68;62.31
69574;BME280;62840;52.366;5.980;2022-08-19T10:24:30;101366.00;;;22.74;62.02
69574;BME280;62840;52.366;5.980;2022-08-19T10:26:56;101355.38;;;22.79;61.39
69574;BME280;62840;52.366;5.980;2022-08-19T10:29:25;101362.13;;;22.83;60.98
69574;BME280;62840;52.366;5.980;2022-08-19T10:31:51;101359.19;;;22.84;61.20
69574;BME280;62840;52.366;5.980;2022-08-19T10:34:17;101353.19;;;22.89;61.09
69574;BME280;62840;52.366;5.980;2022-08-19T10:36:42;101352.59;;;22.94;61.30
69574;BME280;62840;52.366;5.980;2022-08-19T10:39:09;101346.56;;;22.98;61.21
69574;BME280;62840;52.366;5.980;2022-08-19T10:41:37;101354.97;;;23.03;60.96
69574;BME280;62840;52.366;5.980;2022-08-19T10:44:10;101353.78;;;23.13;60.65
69574;BME280;62840;52.366;5.980;2022-08-19T10:46:42;101359.09;;;23.21;60.59
69574;BME280;62840;52.366;5.980;2022-08-19T10:49:10;101349.47;;;23.25;60.47
69574;BME280;62840;52.366;5.980;2022-08-19T10:51:37;101357.91;;;23.30;60.44
69574;BME280;62840;52.366;5.980;2022-08-19T10:54:04;101355.41;;;23.35;60.23
69574;BME280;62840;52.366;5.980;2022-08-19T10:56:31;101353.56;;;23.42;60.37
69574;BME280;62840;52.366;5.980;2022-08-19T10:58:58;101358.91;;;23.50;60.32
69574;BME280;62840;52.366;5.980;2022-08-19T11:01:24;101347.22;;;23.57;59.94
69574;BME280;62840;52.366;5.980;2022-08-19T11:03:53;101343.66;;;23.63;59.81
69574;BME280;62840;52.366;5.980;2022-08-19T11:06:19;101346.19;;;23.64;59.37
69574;BME280;62840;52.366;5.980;2022-08-19T11:08:45;101350.22;;;23.68;59.41
69574;BME280;62840;52.366;5.980;2022-08-19T11:11:11;101345.19;;;23.72;59.47
69574;BME280;62840;52.366;5.980;2022-08-19T11:13:40;101355.28;;;23.78;59.94
69574;BME280;62840;52.366;5.980;2022-08-19T11:16:09;101349.41;;;23.81;59.42
69574;BME280;62840;52.366;5.980;2022-08-19T11:18:37;101354.88;;;23.81;59.33
69574;BME280;62840;52.366;5.980;2022-08-19T11:21:09;101345.66;;;23.82;58.74
69574;BME280;62840;52.366;5.980;2022-08-19T11:23:36;101349.41;;;23.81;59.06
69574;BME280;62840;52.366;5.980;2022-08-19T11:26:02;101348.63;;;23.87;59.82
69574;BME280;62840;52.366;5.980;2022-08-19T11:28:28;101343.19;;;23.94;59.69
69574;BME280;62840;52.366;5.980;2022-08-19T11:30:54;101347.00;;;24.00;58.96
69574;BME280;62840;52.366;5.980;2022-08-19T11:33:20;101342.19;;;24.02;59.01
69574;BME280;62840;52.366;5.980;2022-08-19T11:35:46;101339.47;;;24.02;59.16
69574;BME280;62840;52.366;5.980;2022-08-19T11:38:14;101338.41;;;24.03;59.19
69574;BME280;62840;52.366;5.980;2022-08-19T11:40:40;101335.69;;;24.03;58.65
69574;BME280;62840;52.366;5.980;2022-08-19T11:43:06;101333.59;;;24.05;58.62
69574;BME280;62840;52.366;5.980;2022-08-19T11:45:31;101334.88;;;24.09;58.82
69574;BME280;62840;52.366;5.980;2022-08-19T11:47:57;101343.28;;;24.14;58.78
69574;BME280;62840;52.366;5.980;2022-08-19T11:50:23;101346.25;;;24.19;58.73
69574;BME280;62840;52.366;5.980;2022-08-19T11:52:49;101337.91;;;24.27;58.78
69574;BME280;62840;52.366;5.980;2022-08-19T11:55:18;101338.75;;;24.34;58.64
69574;BME280;62840;52.366;5.980;2022-08-19T11:57:43;101340.03;;;24.39;58.41
69574;BME280;62840;52.366;5.980;2022-08-19T12:00:11;101343.38;;;24.41;58.14
69574;BME280;62840;52.366;5.980;2022-08-19T12:02:38;101346.75;;;24.43;57.84
69574;BME280;62840;52.366;5.980;2022-08-19T12:05:05;101344.03;;;24.49;57.35
69574;BME280;62840;52.366;5.980;2022-08-19T12:07:32;101335.44;;;24.52;57.04
69574;BME280;62840;52.366;5.980;2022-08-19T12:09:58;101342.16;;;24.57;56.92
69574;BME280;62840;52.366;5.980;2022-08-19T12:12:27;101337.75;;;24.62;56.49
69574;BME280;62840;52.366;5.980;2022-08-19T12:14:53;101328.94;;;24.67;56.48
69574;BME280;62840;52.366;5.980;2022-08-19T12:17:18;101339.25;;;24.71;56.61
69574;BME280;62840;52.366;5.980;2022-08-19T12:19:44;101328.72;;;24.68;56.28
69574;BME280;62840;52.366;5.980;2022-08-19T12:22:10;101339.00;;;24.66;56.19
69574;BME280;62840;52.366;5.980;2022-08-19T12:24:36;101335.00;;;24.62;56.47
69574;BME280;62840;52.366;5.980;2022-08-19T12:27:01;101329.97;;;24.59;56.42
69574;BME280;62840;52.366;5.980;2022-08-19T12:29:30;101326.84;;;24.62;56.68
69574;BME280;62840;52.366;5.980;2022-08-19T12:31:56;101330.81;;;24.66;56.27
69574;BME280;62840;52.366;5.980;2022-08-19T12:34:23;101336.09;;;24.68;55.56
69574;BME280;62840;52.366;5.980;2022-08-19T12:36:49;101319.91;;;24.66;54.93
69574;BME280;62840;52.366;5.980;2022-08-19T12:39:14;101325.38;;;24.66;55.52
69574;BME280;62840;52.366;5.980;2022-08-19T12:41:40;101322.00;;;24.71;55.66
69574;BME280;62840;52.366;5.980;2022-08-19T12:44:06;101320.34;;;24.76;55.65
69574;BME280;62840;52.366;5.980;2022-08-19T12:46:34;101319.53;;;24.83;55.03
69574;BME280;62840;52.366;5.980;2022-08-19T12:49:00;101315.31;;;24.87;55.07
69574;BME280;62840;52.366;5.980;2022-08-19T12:51:26;101324.16;;;24.89;54.93